< < Back
Terminal Aerodrome Forecast


Current Version              Previous Versions:   1  2  3  4  5  6  7  8  9  

Terminal Aerodrome Forecast

701
FTUS42 KGSP 230200 AAA
TAFCLT
TAF AMD
KCLT 230222Z 2302/2324 25004KT P6SM VCSH SCT060 BKN250
      TEMPO 2303/2304 VRB10KT 6SM -TSRA BR SCT030CB BKN060
     FM230500 33004KT P6SM SCT130 BKN250
     FM231300 01005KT P6SM SCT130 BKN250
     FM231800 01005KT P6SM SCT060 BKN130 PROB30 2318/2324 4SM TSRA
      BKN040CB=

Latest METAR

058
SAUS70 KWBC 230300 RRB
MTRCLT
METAR KCLT 230252Z 29003KT 10SM SCT075 BKN110 BKN250 28/22 A2999 RMK AO2
SLP143 LTG DSNT N T02830217 50006


USA.gov is the U.S. government's official web portal to all federal, state and local government web resources and services.